Time;durP1;ratioP1;P1;durP2;ratioP2;P2;SDS_P1;SDS_P2;PMS_P1;PMS_P2;Temp;Humidity;BMP_temperature;BMP_pressure;BME280_temperature;BME280_humidity;BME280_pressure;Samples;Min_cycle;Max_cycle;Signal;HPM_P1;HPM_P2
2022/12/01 00:05:24;;;;;;;16.80;13.07;;;9.60;84.70;;;;;;10858263;32;20054;-73
2022/12/01 00:11:26;;;;;;;18.23;14.00;;;9.30;85.20;;;;;;10862098;32;20055;-73
2022/12/01 00:17:29;;;;;;;20.90;16.27;;;9.40;85.50;;;;;;10861982;32;20050;-74
2022/12/01 00:23:31;;;;;;;22.70;15.50;;;9.60;85.20;;;;;;10857505;32;20343;-74
2022/12/01 00:29:34;;;;;;;22.13;15.23;;;9.80;84.80;;;;;;10861632;32;20324;-73
2022/12/01 00:35:36;;;;;;;21.58;17.60;;;9.90;84.80;;;;;;10861515;32;20023;-73
2022/12/01 00:41:37;;;;;;;15.27;11.88;;;10.10;85.00;;;;;;10861363;32;20301;-73
2022/12/01 00:47:39;;;;;;;20.55;13.02;;;10.10;84.70;;;;;;10861395;32;20078;-73
2022/12/01 00:53:44;;;;;;;20.65;15.43;;;10.10;84.60;;;;;;10861057;32;20074;-73
2022/12/01 00:59:46;;;;;;;17.50;12.73;;;10.10;84.70;;;;;;10860912;32;20051;-73
2022/12/01 01:05:48;;;;;;;18.87;14.27;;;10.00;84.50;;;;;;10860957;32;20374;-73
2022/12/01 01:11:52;;;;;;;19.65;11.63;;;9.90;84.60;;;;;;10860578;32;20031;-73
2022/12/01 01:17:54;;;;;;;16.87;12.63;;;9.90;84.70;;;;;;10860642;32;20036;-73
2022/12/01 01:23:56;;;;;;;20.27;12.40;;;9.90;84.60;;;;;;10860513;32;20028;-73
2022/12/01 01:29:58;;;;;;;18.05;11.90;;;10.00;84.80;;;;;;10860259;32;20043;-73
2022/12/01 01:36:00;;;;;;;20.25;14.52;;;9.90;84.70;;;;;;10849622;32;20055;-73
2022/12/01 01:42:02;;;;;;;18.60;13.00;;;10.00;84.80;;;;;;10849092;32;20028;-73
2022/12/01 01:48:04;;;;;;;19.83;14.05;;;10.10;84.70;;;;;;10866200;32;20051;-73
2022/12/01 01:54:27;;;;;;;17.33;11.95;;;10.00;84.70;;;;;;10865793;32;20054;-74
2022/12/01 02:00:43;;;;;;;20.25;13.65;;;9.90;84.50;;;;;;10865845;32;20430;-73
2022/12/01 02:06:45;;;;;;;18.23;11.85;;;9.80;84.60;;;;;;10865757;32;20046;-73
2022/12/01 02:12:57;;;;;;;17.25;11.98;;;9.80;84.60;;;;;;10865363;32;20031;-73
2022/12/01 02:19:01;;;;;;;21.67;16.35;;;9.70;84.70;;;;;;10851134;32;20031;-73
2022/12/01 02:25:27;;;;;;;18.45;13.52;;;9.80;85.10;;;;;;10852719;32;20019;-73
2022/12/01 02:31:41;;;;;;;15.52;11.82;;;9.80;84.80;;;;;;10864795;32;20336;-73
2022/12/01 02:38:11;;;;;;;17.08;12.57;;;9.60;84.70;;;;;;10862343;32;20389;-73
2022/12/01 02:44:13;;;;;;;;;;;9.20;85.10;;;;;;10865112;32;20050;-73
2022/12/01 02:50:17;;;;;;;16.55;11.00;;;8.90;85.60;;;;;;10851004;32;19938;-73
2022/12/01 02:56:22;;;;;;;18.90;12.65;;;8.90;85.80;;;;;;10864210;32;20082;-73
2022/12/01 03:02:55;;;;;;;13.80;11.12;;;9.10;85.60;;;;;;10864074;32;20028;-73
2022/12/01 03:09:36;;;;;;;17.62;11.73;;;9.00;85.20;;;;;;10850759;32;20008;-73
2022/12/01 03:16:00;;;;;;;15.50;11.63;;;9.00;85.30;;;;;;10849667;32;20075;-73
2022/12/01 03:22:13;;;;;;;13.85;10.98;;;9.00;84.90;;;;;;10863563;32;20008;-73
2022/12/01 03:28:19;;;;;;;21.02;14.80;;;8.80;85.00;;;;;;10850147;32;20046;-73
2022/12/01 03:34:31;;;;;;;15.52;11.50;;;8.70;85.30;;;;;;10849741;32;20020;-73
2022/12/01 03:40:37;;;;;;;13.82;10.48;;;8.80;85.00;;;;;;10862982;32;20032;-73
2022/12/01 03:46:46;;;;;;;16.80;13.93;;;8.70;84.90;;;;;;10862774;32;20019;-73
2022/12/01 03:53:03;;;;;;;19.73;13.60;;;8.90;84.70;;;;;;10862685;32;20388;-73
2022/12/01 03:59:08;;;;;;;20.60;14.57;;;8.80;84.70;;;;;;10862043;32;20054;-73
2022/12/01 04:05:11;;;;;;;18.77;13.02;;;8.80;84.70;;;;;;10862266;32;20078;-73
2022/12/01 04:17:34;;;;;;;16.87;12.73;;;9.00;84.20;;;;;;10862088;32;20073;-73
2022/12/01 04:29:58;;;;;;;15.07;12.25;;;8.90;83.80;;;;;;10861635;32;20054;-73
2022/12/01 04:36:00;;;;;;;15.48;12.65;;;8.90;84.50;;;;;;10848365;32;20052;-73
2022/12/01 04:42:03;;;;;;;16.90;12.63;;;8.70;84.60;;;;;;10848223;32;20020;-73
2022/12/01 04:48:05;;;;;;;21.25;15.43;;;8.80;84.60;;;;;;10861300;32;20067;-73
2022/12/01 04:54:07;;;;;;;17.20;12.68;;;9.10;84.10;;;;;;10847904;32;20052;-73
2022/12/01 05:00:12;;;;;;;16.05;10.85;;;9.10;83.40;;;;;;10861247;32;20414;-73
2022/12/01 05:06:19;;;;;;;14.45;9.95;;;9.20;83.20;;;;;;10847713;32;20027;-73
2022/12/01 05:12:22;;;;;;;17.05;12.05;;;9.10;82.90;;;;;;10864978;32;20027;-73
2022/12/01 05:18:24;;;;;;;18.35;11.70;;;9.20;82.40;;;;;;10867084;32;20024;-73
2022/12/01 05:24:26;;;;;;;14.27;11.43;;;9.10;82.00;;;;;;10866943;32;20024;-73
2022/12/01 05:30:28;;;;;;;17.92;12.52;;;8.90;82.20;;;;;;10853578;32;20036;-73
2022/12/01 05:36:31;;;;;;;19.92;12.95;;;8.90;81.90;;;;;;10866677;32;20562;-73
2022/12/01 05:42:33;;;;;;;21.02;15.10;;;8.90;81.80;;;;;;10866440;32;20058;-73
2022/12/01 05:48:35;;;;;;;19.70;12.52;;;8.80;81.50;;;;;;10866161;32;20046;-73
2022/12/01 05:54:37;;;;;;;20.00;13.38;;;8.70;81.60;;;;;;10865960;32;20429;-73
2022/12/01 06:00:39;;;;;;;19.17;11.73;;;8.50;81.70;;;;;;10865888;32;20020;-73
2022/12/01 06:06:41;;;;;;;16.27;11.60;;;8.30;82.20;;;;;;10865782;32;20032;-73
2022/12/01 06:12:43;;;;;;;12.93;10.70;;;8.40;82.40;;;;;;10865366;32;20054;-73
2022/12/01 06:18:45;;;;;;;19.52;14.73;;;8.60;82.30;;;;;;10864602;32;20058;-73
2022/12/01 06:24:49;;;;;;;16.65;12.57;;;8.70;82.10;;;;;;10885022;32;20024;-73
2022/12/01 06:30:51;;;;;;;16.58;12.88;;;8.60;82.10;;;;;;10902192;32;20067;-73
2022/12/01 06:36:53;;;;;;;18.67;13.70;;;8.60;81.90;;;;;;10902071;32;20024;-73
2022/12/01 06:42:59;;;;;;;16.75;11.43;;;8.60;81.70;;;;;;10901903;32;20436;-73
2022/12/01 06:49:02;;;;;;;17.75;14.77;;;8.50;81.40;;;;;;10881627;27;20058;-73
2022/12/01 06:55:05;;;;;;;19.10;15.70;;;8.50;81.70;;;;;;10864229;32;20054;-73
2022/12/01 07:01:08;;;;;;;21.00;16.35;;;8.70;81.40;;;;;;10815731;32;20059;-73
2022/12/01 07:07:11;;;;;;;13.55;11.52;;;8.80;81.50;;;;;;10813294;32;20085;-76
2022/12/01 07:13:13;;;;;;;15.43;12.27;;;8.80;81.60;;;;;;10823162;33;20074;-76
2022/12/01 07:19:15;;;;;;;13.23;11.77;;;8.80;81.50;;;;;;10847268;32;20055;-75
2022/12/01 07:25:17;;;;;;;15.27;12.27;;;8.90;81.00;;;;;;10826148;32;20028;-76
2022/12/01 07:31:19;;;;;;;20.58;16.50;;;8.80;81.10;;;;;;10831020;32;20335;-75
2022/12/01 07:37:21;;;;;;;22.70;17.20;;;8.80;81.60;;;;;;10820876;32;20043;-75
2022/12/01 07:43:23;;;;;;;23.42;13.88;;;8.90;81.70;;;;;;10822780;32;20024;-75
2022/12/01 07:49:26;;;;;;;24.40;17.17;;;9.00;81.90;;;;;;10825299;32;20050;-76
2022/12/01 07:55:28;;;;;;;20.88;17.70;;;9.20;81.90;;;;;;10826561;32;20293;-75
2022/12/01 08:01:30;;;;;;;17.12;12.85;;;9.30;81.60;;;;;;10856431;32;20101;-75
2022/12/01 08:07:58;;;;;;;13.13;11.52;;;9.40;81.80;;;;;;10862161;32;20050;-75
2022/12/01 08:14:01;;;;;;;14.10;10.10;;;9.60;82.30;;;;;;10844570;32;20431;-76
2022/12/01 08:20:04;;;;;;;16.23;11.25;;;9.50;82.70;;;;;;10848569;32;20023;-76
2022/12/01 08:26:13;;;;;;;14.10;10.98;;;9.70;83.10;;;;;;10861564;32;20036;-76
2022/12/01 08:32:16;;;;;;;14.00;10.27;;;9.70;82.90;;;;;;10857511;32;20055;-76
2022/12/01 08:38:18;;;;;;;14.50;10.70;;;9.70;83.80;;;;;;10858153;32;20400;-76
2022/12/01 08:44:20;;;;;;;12.40;8.02;;;10.00;84.30;;;;;;10863315;32;20059;-76
2022/12/01 08:50:22;;;;;;;12.68;8.13;;;10.40;84.30;;;;;;10867889;32;20039;-73
2022/12/01 08:56:30;;;;;;;10.57;6.93;;;10.50;84.60;;;;;;10867806;32;20062;-73
2022/12/01 09:02:32;;;;;;;12.13;7.57;;;10.60;84.80;;;;;;10867632;32;20023;-73
2022/12/01 09:08:35;;;;;;;8.52;5.28;;;10.70;85.20;;;;;;10854052;32;20019;-73
2022/12/01 09:14:39;;;;;;;6.30;3.35;;;10.80;85.40;;;;;;10862782;32;20054;-73
2022/12/01 09:20:42;;;;;;;4.62;2.80;;;11.10;85.90;;;;;;10867218;32;20071;-73
2022/12/01 09:27:06;;;;;;;4.05;2.62;;;11.40;86.20;;;;;;10867045;32;20073;-73
2022/12/01 09:33:16;;;;;;;3.47;1.65;;;11.50;86.30;;;;;;10863167;32;20336;-73
2022/12/01 09:39:19;;;;;;;4.05;1.95;;;11.60;86.20;;;;;;10865949;32;20614;-73
2022/12/01 09:45:29;;;;;;;2.67;1.52;;;11.50;86.50;;;;;;10866252;32;20046;-73
2022/12/01 09:51:54;;;;;;;2.42;1.27;;;11.50;87.10;;;;;;10865877;32;20454;-73
2022/12/01 09:58:02;;;;;;;3.37;1.60;;;11.60;87.00;;;;;;10865397;32;20050;-73
2022/12/01 10:04:19;;;;;;;2.00;1.75;;;11.70;87.00;;;;;;10865821;32;20176;-73
2022/12/01 10:10:44;;;;;;;2.67;1.75;;;11.90;86.90;;;;;;10851445;32;20055;-74
2022/12/01 10:17:14;;;;;;;2.37;1.62;;;11.90;87.00;;;;;;10865559;32;20066;-73
2022/12/01 10:23:38;;;;;;;4.12;1.90;;;11.90;87.20;;;;;;10861155;32;20396;-73
2022/12/01 10:30:14;;;;;;;5.40;3.22;;;11.80;86.40;;;;;;10861649;32;20328;-73
2022/12/01 10:36:16;;;;;;;5.18;2.28;;;11.70;87.20;;;;;;10864912;32;20039;-73
2022/12/01 10:42:35;;;;;;;3.03;1.92;;;11.70;87.10;;;;;;10860657;32;20031;-73
2022/12/01 10:48:52;;;;;;;3.00;1.27;;;11.80;87.30;;;;;;10860406;32;20047;-73
2022/12/01 10:54:54;;;;;;;4.40;1.70;;;12.10;87.00;;;;;;10863822;32;20028;-73
2022/12/01 11:01:04;;;;;;;4.05;2.10;;;12.20;87.00;;;;;;10844754;32;20039;-73
2022/12/01 11:07:33;;;;;;;4.35;2.20;;;12.20;86.30;;;;;;10860239;32;20027;-73
2022/12/01 11:13:36;;;;;;;2.65;1.92;;;12.10;86.80;;;;;;10849179;32;20035;-73
2022/12/01 11:19:38;;;;;;;1.92;1.35;;;12.10;86.90;;;;;;10863586;32;20019;-73
2022/12/01 11:25:40;;;;;;;3.05;2.30;;;12.20;86.70;;;;;;10861395;32;20289;-74
2022/12/01 11:31:45;;;;;;;4.62;2.17;;;12.40;86.70;;;;;;10863082;32;20032;-73
2022/12/01 11:37:51;;;;;;;3.55;1.42;;;12.50;86.70;;;;;;10862984;32;20355;-73
2022/12/01 11:43:55;;;;;;;2.72;1.73;;;12.60;87.00;;;;;;10862714;32;20077;-73
2022/12/01 11:50:01;;;;;;;2.58;1.50;;;12.40;87.00;;;;;;10862624;32;20027;-74
2022/12/01 11:56:27;;;;;;;4.07;1.62;;;12.50;87.20;;;;;;10842700;32;20062;-73
2022/12/01 12:02:48;;;;;;;3.72;2.45;;;12.70;87.70;;;;;;10821998;32;20031;-73
2022/12/01 12:09:13;;;;;;;2.20;1.87;;;13.00;87.20;;;;;;10821903;33;20032;-73
2022/12/01 12:15:54;;;;;;;3.30;1.85;;;13.20;87.00;;;;;;10823713;32;20035;-73
2022/12/01 12:22:06;;;;;;;3.55;2.15;;;13.00;86.60;;;;;;10900533;32;20072;-73
2022/12/01 12:28:17;;;;;;;4.53;2.45;;;12.90;87.30;;;;;;10900357;32;20023;-74
2022/12/01 12:34:54;;;;;;;3.20;2.30;;;13.00;87.30;;;;;;10901395;32;20364;-73
2022/12/01 12:41:13;;;;;;;3.70;2.03;;;13.10;87.10;;;;;;10900171;32;20336;-73
2022/12/01 12:47:23;;;;;;;3.12;1.73;;;13.10;87.20;;;;;;10896311;32;20034;-74
2022/12/01 12:53:32;;;;;;;2.58;1.62;;;13.20;87.10;;;;;;10900835;32;20332;-73
2022/12/01 12:59:37;;;;;;;3.78;2.50;;;13.10;87.30;;;;;;10828898;32;20048;-73
2022/12/01 13:05:44;;;;;;;4.87;3.22;;;13.00;87.60;;;;;;10823867;32;20058;-73
2022/12/01 13:12:14;;;;;;;3.53;2.60;;;13.00;87.60;;;;;;10823748;32;20320;-73
2022/12/01 13:18:45;;;;;;;4.85;2.62;;;13.00;87.50;;;;;;10812809;32;20046;-73
2022/12/01 13:24:49;;;;;;;5.75;3.37;;;12.90;87.70;;;;;;10823579;32;20339;-73
2022/12/01 13:31:08;;;;;;;4.10;2.28;;;12.80;87.80;;;;;;10811676;32;20400;-73
2022/12/01 13:37:10;;;;;;;4.37;2.97;;;12.80;87.80;;;;;;10815493;32;20352;-74
2022/12/01 13:43:22;;;;;;;4.15;2.95;;;12.80;87.70;;;;;;10828477;33;20027;-74
2022/12/01 13:49:43;;;;;;;4.57;2.83;;;12.80;87.70;;;;;;10826409;33;20074;-75
2022/12/01 13:56:13;;;;;;;4.37;2.83;;;12.90;87.80;;;;;;10831374;32;20027;-73
2022/12/01 14:02:26;;;;;;;3.62;2.50;;;12.90;87.70;;;;;;10825800;33;20032;-76
2022/12/01 14:08:33;;;;;;;5.22;3.03;;;13.00;87.50;;;;;;10828551;33;20036;-76
2022/12/01 14:14:38;;;;;;;5.55;3.15;;;13.00;87.40;;;;;;10828412;32;20328;-76
2022/12/01 14:21:05;;;;;;;4.18;2.95;;;13.00;87.10;;;;;;10828261;32;20024;-76
2022/12/01 14:27:12;;;;;;;4.53;3.15;;;13.00;87.10;;;;;;10823936;32;20028;-76
2022/12/01 14:33:53;;;;;;;3.67;2.00;;;12.80;86.60;;;;;;10825169;32;20058;-76
2022/12/01 14:40:11;;;;;;;4.22;2.10;;;12.70;87.20;;;;;;10824116;32;20032;-76
2022/12/01 14:46:21;;;;;;;4.80;2.35;;;12.80;87.20;;;;;;10862616;27;20053;-76
2022/12/01 14:52:37;;;;;;;4.03;2.00;;;13.00;87.00;;;;;;11057224;32;20056;-76
2022/12/01 14:58:59;;;;;;;2.80;2.30;;;13.10;86.70;;;;;;11057784;32;20029;-76
2022/12/01 15:05:10;;;;;;;3.35;2.25;;;13.20;86.30;;;;;;11058682;32;20068;-76
2022/12/01 15:11:24;;;;;;;3.20;1.90;;;13.20;86.10;;;;;;11026027;32;20066;-76
2022/12/01 15:17:33;;;;;;;2.90;2.05;;;13.20;85.50;;;;;;10981748;32;20405;-76
2022/12/01 15:23:36;;;;;;;1.92;1.50;;;13.30;85.20;;;;;;10979431;32;20338;-76
2022/12/01 15:29:46;;;;;;;4.53;2.35;;;13.20;85.20;;;;;;11014846;32;20057;-76
2022/12/01 15:35:49;;;;;;;2.45;1.95;;;13.10;85.10;;;;;;11014048;32;20026;-74
2022/12/01 15:41:53;;;;;;;4.50;2.05;;;13.10;84.60;;;;;;11017133;32;20018;-73
2022/12/01 15:48:24;;;;;;;5.32;3.55;;;13.00;84.40;;;;;;10960623;32;20059;-74
2022/12/01 15:54:30;;;;;;;8.27;4.30;;;12.80;84.60;;;;;;10895147;32;20011;-74
2022/12/01 16:00:33;;;;;;;6.30;4.15;;;12.70;84.70;;;;;;10898841;32;20427;-73
2022/12/01 16:06:58;;;;;;;7.47;4.87;;;12.70;84.90;;;;;;10899602;32;20343;-74
2022/12/01 16:13:34;;;;;;;13.35;7.65;;;12.50;84.70;;;;;;10870447;32;20035;-74
2022/12/01 16:19:37;;;;;;;13.68;7.37;;;12.50;84.60;;;;;;10862547;32;20062;-74
2022/12/01 16:25:44;;;;;;;17.48;8.35;;;12.40;84.40;;;;;;10861775;32;20020;-73
2022/12/01 16:31:47;;;;;;;14.85;9.10;;;12.30;83.80;;;;;;10854274;32;20035;-73
2022/12/01 16:37:49;;;;;;;17.60;11.20;;;12.20;83.70;;;;;;10828958;32;20355;-73
2022/12/01 16:43:51;;;;;;;13.57;7.97;;;12.10;83.60;;;;;;10824368;33;20418;-74
2022/12/01 16:50:04;;;;;;;11.85;8.95;;;12.10;83.60;;;;;;10860005;32;20023;-74
2022/12/01 16:56:26;;;;;;;18.05;13.13;;;12.00;83.70;;;;;;10860958;32;20050;-73
2022/12/01 17:02:29;;;;;;;18.10;13.18;;;11.90;83.80;;;;;;10858473;32;20066;-74
2022/12/01 17:08:33;;;;;;;18.42;11.70;;;11.80;84.00;;;;;;10866430;32;20058;-73
2022/12/01 17:14:54;;;;;;;15.90;11.23;;;11.90;84.00;;;;;;10867052;32;20050;-73
2022/12/01 17:21:22;;;;;;;15.50;11.80;;;11.90;84.40;;;;;;10867041;32;20050;-73
2022/12/01 17:27:26;;;;;;;13.87;10.17;;;11.80;84.30;;;;;;10892833;32;20036;-73
2022/12/01 17:33:29;;;;;;;14.85;9.80;;;11.90;84.60;;;;;;10865314;32;20032;-74
2022/12/01 17:39:31;;;;;;;12.15;8.68;;;11.90;84.60;;;;;;10866941;32;20028;-73
2022/12/01 17:45:33;;;;;;;12.18;7.97;;;11.80;84.30;;;;;;10915367;32;20069;-73
2022/12/01 17:51:35;;;;;;;10.57;6.87;;;11.70;84.20;;;;;;10865521;32;20097;-73
2022/12/01 17:57:37;;;;;;;10.68;7.10;;;11.60;84.20;;;;;;10866173;32;20055;-73
2022/12/01 18:03:39;;;;;;;10.60;6.93;;;11.60;84.40;;;;;;10865734;32;20339;-73
2022/12/01 18:09:41;;;;;;;15.18;8.65;;;11.60;84.40;;;;;;10861555;32;20023;-75
2022/12/01 18:15:50;;;;;;;13.73;10.88;;;11.40;84.40;;;;;;10860943;32;20059;-76
2022/12/01 18:21:52;;;;;;;;;;;11.40;84.60;;;;;;10865590;32;20471;-75
2022/12/01 18:27:57;;;;;;;18.87;11.88;;;11.40;84.60;;;;;;10863289;32;19965;-75
2022/12/01 18:34:01;;;;;;;26.37;18.37;;;11.60;84.80;;;;;;10915199;32;20023;-76
2022/12/01 18:40:06;;;;;;;28.17;17.98;;;11.50;84.70;;;;;;10861133;32;20027;-76
2022/12/01 18:46:09;;;;;;;18.33;11.63;;;11.50;84.40;;;;;;10913744;32;20088;-76
2022/12/01 18:52:14;;;;;;;18.00;13.30;;;11.50;84.20;;;;;;10861967;32;20411;-76
2022/12/01 18:58:15;;;;;;;15.32;11.75;;;11.50;84.20;;;;;;10864079;32;20046;-76
2022/12/01 19:04:18;;;;;;;16.40;10.00;;;11.50;84.40;;;;;;10860418;32;20069;-75
2022/12/01 19:10:20;;;;;;;17.85;11.02;;;11.50;84.40;;;;;;10863841;32;20438;-75
2022/12/01 19:16:22;;;;;;;11.00;7.50;;;11.50;84.50;;;;;;10863742;32;20429;-75
2022/12/01 19:22:24;;;;;;;12.20;8.00;;;11.50;84.40;;;;;;10862094;32;20426;-75
2022/12/01 19:28:27;;;;;;;10.60;7.72;;;11.50;84.60;;;;;;10859723;32;20027;-75
2022/12/01 19:34:29;;;;;;;13.27;7.05;;;11.50;84.40;;;;;;10913901;32;20027;-75
2022/12/01 19:40:31;;;;;;;11.23;7.07;;;11.40;84.40;;;;;;10862944;32;20046;-75
2022/12/01 19:46:34;;;;;;;14.32;8.88;;;11.40;84.50;;;;;;10913672;32;20042;-75
2022/12/01 19:52:36;;;;;;;16.05;9.70;;;11.50;84.70;;;;;;10860037;32;20039;-75
2022/12/01 19:58:39;;;;;;;12.63;8.43;;;11.60;85.00;;;;;;10862690;32;20050;-75
2022/12/01 20:04:41;;;;;;;11.90;8.55;;;11.80;85.10;;;;;;10862418;32;20028;-75
2022/12/01 20:10:47;;;;;;;15.90;10.52;;;11.80;85.00;;;;;;10862184;32;20055;-75
2022/12/01 20:16:49;;;;;;;10.25;7.57;;;12.00;85.40;;;;;;10861942;32;20296;-75
2022/12/01 20:22:51;;;;;;;11.38;8.85;;;12.10;85.30;;;;;;10861930;32;20050;-75
2022/12/01 20:28:56;;;;;;;11.60;7.40;;;12.10;85.00;;;;;;10861827;32;20020;-75
2022/12/01 20:35:00;;;;;;;8.65;6.45;;;12.20;84.80;;;;;;10861606;32;20031;-75
2022/12/01 20:41:03;;;;;;;12.70;9.23;;;12.20;84.60;;;;;;10860608;32;20054;-75
2022/12/01 20:47:05;;;;;;;12.85;9.48;;;12.20;84.70;;;;;;10867172;32;20054;-75
2022/12/01 20:53:09;;;;;;;9.63;7.05;;;12.20;84.90;;;;;;10867931;32;20054;-75
2022/12/01 20:59:11;;;;;;;12.40;8.02;;;12.20;84.90;;;;;;10867016;32;20046;-75
2022/12/01 21:05:15;;;;;;;11.35;7.28;;;12.20;85.90;;;;;;10928918;32;20062;-75
2022/12/01 21:13:37;;;;;;;9.10;6.60;;;12.10;85.90;;;;;;10875497;32;20197;-75
2022/12/01 21:17:48;;;;;;;10.48;7.37;;;12.10;86.00;;;;;;10866758;32;20058;-75
2022/12/01 21:24:10;;;;;;;10.57;6.70;;;12.10;86.00;;;;;;10866451;32;20057;-73
2022/12/01 21:30:15;;;;;;;7.47;5.50;;;11.80;85.90;;;;;;10865602;32;20035;-73
2022/12/01 21:36:27;;;;;;;7.10;4.18;;;11.60;85.80;;;;;;10917885;32;20023;-73
2022/12/01 21:42:30;;;;;;;7.18;4.18;;;11.40;85.40;;;;;;10866721;32;20046;-73
2022/12/01 21:48:35;;;;;;;3.75;2.78;;;11.50;86.10;;;;;;10884111;32;20038;-75
2022/12/01 21:54:58;;;;;;;8.20;3.37;;;11.50;85.90;;;;;;10899171;32;20031;-75
2022/12/01 22:01:06;;;;;;;5.03;3.75;;;11.50;86.00;;;;;;10889915;32;20050;-75
2022/12/01 22:07:13;;;;;;;5.55;3.42;;;11.50;86.10;;;;;;10903179;32;20023;-75
2022/12/01 22:13:15;;;;;;;6.10;3.30;;;11.40;86.30;;;;;;10902943;32;20027;-75
2022/12/01 22:19:32;;;;;;;4.12;2.65;;;11.20;86.00;;;;;;10902745;32;20339;-75
2022/12/01 22:25:34;;;;;;;5.85;3.33;;;11.10;86.30;;;;;;10902575;32;20019;-76
2022/12/01 22:31:38;;;;;;;4.75;2.85;;;10.90;85.60;;;;;;10899060;32;20454;-75
2022/12/01 22:37:46;;;;;;;5.32;2.72;;;10.70;86.00;;;;;;10902351;32;20042;-73
2022/12/01 22:43:54;;;;;;;4.80;2.97;;;10.70;86.30;;;;;;10902317;32;20049;-72
2022/12/01 22:49:57;;;;;;;3.17;2.05;;;11.00;86.50;;;;;;10558547;27;14488106;-73
2022/12/01 22:56:38;;;;;;;3.37;1.90;;;11.00;86.20;;;;;;11015803;32;20053;-72
2022/12/01 23:02:40;;;;;;;4.22;2.65;;;11.00;86.40;;;;;;11016443;32;20022;-73
2022/12/01 23:08:42;;;;;;;3.53;1.95;;;11.00;86.10;;;;;;11017215;32;20023;-73
2022/12/01 23:14:50;;;;;;;2.67;1.65;;;10.60;86.00;;;;;;11030350;32;20041;-75
2022/12/01 23:20:57;;;;;;;3.15;1.67;;;10.60;86.40;;;;;;11058295;32;20033;-75
2022/12/01 23:26:59;;;;;;;3.05;1.37;;;10.40;86.50;;;;;;11054826;32;20030;-75
2022/12/01 23:33:07;;;;;;;2.28;1.10;;;10.50;86.80;;;;;;11057885;32;20034;-75
2022/12/01 23:39:12;;;;;;;1.50;1.00;;;10.50;86.10;;;;;;11056817;32;20022;-76
2022/12/01 23:45:24;;;;;;;2.85;1.30;;;10.30;86.30;;;;;;11057364;32;20010;-75
2022/12/01 23:51:50;;;;;;;1.33;0.80;;;10.30;86.60;;;;;;11056865;32;20358;-75
2022/12/01 23:57:52;;;;;;;2.35;1.35;;;10.30;86.10;;;;;;11057045;32;20040;-75
